createdAt,value
2023-05-23T00:01:49.935Z,16.64
2023-05-23T00:04:20.507Z,16.84
2023-05-23T00:06:47.537Z,16.37
2023-05-23T00:09:15.267Z,16.35
2023-05-23T00:11:45.792Z,16.41
2023-05-23T00:14:13.952Z,16.47
2023-05-23T00:16:45.329Z,16.78
2023-05-23T00:19:15.501Z,16.71
2023-05-23T00:21:48.911Z,16.61
2023-05-23T00:24:18.997Z,16.72
2023-05-23T00:26:47.106Z,16.63
2023-05-23T00:29:16.663Z,16.82
2023-05-23T00:31:47.217Z,16.78
2023-05-23T00:34:15.590Z,16.79
2023-05-23T00:36:43.880Z,16.81
2023-05-23T00:39:20.162Z,16.67
2023-05-23T00:41:51.806Z,16.54
2023-05-23T00:44:20.576Z,16.61
2023-05-23T00:46:54.432Z,16.46
2023-05-23T00:49:22.119Z,16.47
2023-05-23T00:51:49.918Z,16.44
2023-05-23T00:54:21.236Z,16.50
2023-05-23T00:56:48.943Z,16.54
2023-05-23T00:59:17.089Z,16.76
2023-05-23T01:01:47.422Z,16.55
2023-05-23T01:04:16.975Z,16.65
2023-05-23T01:06:47.349Z,16.47
2023-05-23T01:09:16.578Z,16.53
2023-05-23T01:11:59.016Z,16.30
2023-05-23T01:14:38.382Z,16.22
2023-05-23T01:17:14.761Z,16.09
2023-05-23T01:20:02.799Z,15.87
2023-05-23T01:22:50.898Z,15.61
2023-05-23T01:25:40.354Z,15.55
2023-05-23T01:28:12.126Z,15.45
2023-05-23T01:30:42.180Z,15.47
2023-05-23T01:33:12.128Z,15.36
2023-05-23T01:35:44.001Z,15.22
2023-05-23T01:38:11.126Z,15.15
2023-05-23T01:40:38.315Z,15.03
2023-05-23T01:43:08.037Z,15.14
2023-05-23T01:45:35.648Z,15.10
2023-05-23T01:48:04.214Z,15.21
2023-05-23T01:50:32.802Z,15.29
2023-05-23T01:53:02.782Z,14.90
2023-05-23T01:55:29.885Z,14.92
2023-05-23T01:57:58.316Z,14.91
2023-05-23T02:00:25.779Z,14.92
2023-05-23T02:02:52.965Z,14.82
2023-05-23T02:05:20.149Z,14.97
2023-05-23T02:07:47.073Z,15.02
2023-05-23T02:10:14.405Z,15.14
2023-05-23T02:12:41.324Z,15.15
2023-05-23T02:15:09.082Z,15.35
2023-05-23T02:17:36.276Z,15.36
2023-05-23T02:20:03.433Z,15.43
2023-05-23T02:22:30.503Z,15.30
2023-05-23T02:24:57.346Z,15.26
2023-05-23T02:27:24.448Z,15.22
2023-05-23T02:29:51.487Z,15.17
2023-05-23T02:32:18.518Z,15.14
2023-05-23T02:34:46.984Z,15.14
2023-05-23T02:37:15.028Z,14.76
2023-05-23T02:39:41.858Z,14.92
2023-05-23T02:42:09.041Z,14.76
2023-05-23T02:44:36.008Z,14.84
2023-05-23T02:47:02.915Z,14.75
2023-05-23T02:49:30.110Z,14.66
2023-05-23T02:51:56.942Z,14.65
2023-05-23T02:54:24.052Z,14.65
2023-05-23T02:56:52.579Z,14.85
2023-05-23T02:59:19.423Z,14.74
2023-05-23T03:01:46.546Z,14.73
2023-05-23T03:04:14.041Z,14.89
2023-05-23T03:06:42.446Z,14.87
2023-05-23T03:09:10.197Z,14.62
2023-05-23T03:11:37.849Z,14.63
2023-05-23T03:14:04.924Z,14.61
2023-05-23T03:16:32.196Z,14.68
2023-05-23T03:18:59.972Z,14.49
2023-05-23T03:21:27.242Z,14.68
2023-05-23T03:23:54.115Z,14.55
2023-05-23T03:26:22.232Z,14.52
2023-05-23T03:28:51.376Z,14.62
2023-05-23T03:31:18.512Z,14.66
2023-05-23T03:33:45.803Z,14.84
2023-05-23T03:36:12.901Z,14.84
2023-05-23T03:38:39.812Z,14.78
2023-05-23T03:41:07.214Z,14.76
2023-05-23T03:43:34.412Z,14.77
2023-05-23T03:46:01.411Z,14.91
2023-05-23T03:48:30.781Z,14.93
2023-05-23T03:50:57.703Z,14.78
2023-05-23T03:53:25.055Z,14.77
2023-05-23T03:55:54.254Z,14.72
2023-05-23T03:58:21.430Z,14.57
2023-05-23T04:00:51.683Z,14.52
2023-05-23T04:03:18.988Z,14.55
2023-05-23T04:05:46.122Z,14.41
2023-05-23T04:08:13.405Z,14.43
2023-05-23T04:10:40.312Z,14.53
2023-05-23T04:13:07.340Z,14.31
2023-05-23T04:15:34.901Z,14.42
2023-05-23T04:18:02.112Z,14.31
2023-05-23T04:20:29.267Z,14.28
2023-05-23T04:22:56.272Z,14.39
2023-05-23T04:25:24.567Z,14.46
2023-05-23T04:27:51.609Z,14.45
2023-05-23T04:30:18.670Z,14.65
2023-05-23T04:32:46.313Z,14.49
2023-05-23T04:35:14.553Z,14.55
2023-05-23T04:37:42.675Z,14.56
2023-05-23T04:40:10.306Z,14.67
2023-05-23T04:42:37.586Z,14.69
2023-05-23T04:45:05.161Z,14.88
2023-05-23T04:47:37.169Z,14.98
2023-05-23T04:50:05.777Z,15.02
2023-05-23T04:52:34.388Z,15.11
2023-05-23T04:55:02.053Z,14.93
2023-05-23T04:57:29.239Z,14.88
2023-05-23T04:59:57.381Z,14.75
2023-05-23T05:02:24.485Z,14.86
2023-05-23T05:04:51.659Z,14.95
2023-05-23T05:07:18.943Z,15.06
2023-05-23T05:09:46.052Z,15.14
2023-05-23T05:12:13.092Z,15.02
2023-05-23T05:14:40.355Z,15.06
2023-05-23T05:17:07.555Z,14.92
2023-05-23T05:19:37.775Z,15.09
2023-05-23T05:22:05.379Z,14.98
2023-05-23T05:24:33.160Z,14.92
2023-05-23T05:27:00.301Z,14.74
2023-05-23T05:29:27.411Z,14.76
2023-05-23T05:31:54.198Z,14.93
2023-05-23T05:34:21.566Z,14.92
2023-05-23T05:36:48.582Z,14.97
2023-05-23T05:39:15.759Z,14.89
2023-05-23T05:41:42.736Z,14.98
2023-05-23T05:44:10.378Z,15.12
2023-05-23T05:46:37.750Z,15.13
2023-05-23T05:49:05.062Z,15.14
2023-05-23T05:51:32.217Z,15.20
2023-05-23T05:53:59.174Z,15.20
2023-05-23T05:56:26.618Z,15.04
2023-05-23T05:58:53.886Z,15.11
2023-05-23T06:01:20.967Z,15.18
2023-05-23T06:03:48.477Z,15.33
2023-05-23T06:06:15.617Z,15.21
2023-05-23T06:08:43.396Z,15.32
2023-05-23T06:11:10.458Z,15.45
2023-05-23T06:13:37.357Z,15.51
2023-05-23T06:16:04.433Z,15.78
2023-05-23T06:18:31.336Z,15.74
2023-05-23T06:21:04.181Z,15.71
2023-05-23T06:23:31.306Z,15.76
2023-05-23T06:25:59.873Z,15.46
2023-05-23T06:28:26.852Z,15.18
2023-05-23T06:30:53.753Z,15.21
2023-05-23T06:33:20.677Z,15.27
2023-05-23T06:35:47.501Z,15.38
2023-05-23T06:38:15.819Z,15.47
2023-05-23T06:40:44.674Z,15.75
2023-05-23T06:43:11.617Z,16.02
2023-05-23T06:45:38.677Z,15.72
2023-05-23T06:48:06.177Z,15.36
2023-05-23T06:50:33.367Z,15.25
2023-05-23T06:53:00.342Z,15.05
2023-05-23T06:55:28.536Z,14.76
2023-05-23T06:57:55.333Z,14.74
2023-05-23T07:00:22.373Z,14.95
2023-05-23T07:02:49.360Z,14.76
2023-05-23T07:05:17.700Z,14.58
2023-05-23T07:07:44.651Z,14.38
2023-05-23T07:10:11.858Z,14.17
2023-05-23T07:12:39.007Z,14.13
2023-05-23T07:15:06.436Z,14.27
2023-05-23T07:17:33.496Z,14.43
2023-05-23T07:20:00.373Z,14.65
2023-05-23T07:22:27.314Z,14.64
2023-05-23T07:24:54.323Z,14.67
2023-05-23T07:27:21.380Z,14.80
2023-05-23T07:29:48.248Z,14.99
2023-05-23T07:32:15.508Z,15.05
2023-05-23T07:34:42.475Z,15.30
2023-05-23T07:37:09.461Z,15.25
2023-05-23T07:39:36.278Z,15.17
2023-05-23T07:42:03.288Z,15.17
2023-05-23T07:44:30.274Z,15.25
2023-05-23T07:46:57.354Z,15.23
2023-05-23T07:49:24.370Z,15.18
2023-05-23T07:51:51.416Z,15.03
2023-05-23T07:54:18.321Z,15.05
2023-05-23T07:56:45.471Z,14.99
2023-05-23T07:59:12.356Z,14.71
2023-05-23T08:01:39.316Z,14.46
2023-05-23T08:04:06.724Z,14.29
2023-05-23T08:06:33.878Z,14.28
2023-05-23T08:09:02.350Z,14.23
2023-05-23T08:11:30.838Z,14.18
2023-05-23T08:13:59.347Z,13.85
2023-05-23T08:16:28.497Z,13.56
2023-05-23T08:18:55.438Z,13.38
2023-05-23T08:21:24.137Z,13.31
2023-05-23T08:23:51.144Z,13.19
2023-05-23T08:26:18.136Z,13.12
2023-05-23T08:28:45.106Z,13.17
2023-05-23T08:31:12.179Z,13.23
2023-05-23T08:33:39.079Z,13.22
2023-05-23T08:36:06.235Z,13.50
2023-05-23T08:38:33.095Z,13.60
2023-05-23T08:41:02.131Z,13.26
2023-05-23T08:43:29.524Z,13.31
2023-05-23T08:45:57.513Z,13.34
2023-05-23T08:48:27.418Z,13.30
2023-05-23T08:50:54.402Z,13.40
2023-05-23T08:53:23.767Z,13.64
2023-05-23T08:55:55.955Z,13.44
2023-05-23T08:58:25.001Z,13.56
2023-05-23T09:00:53.998Z,13.61
2023-05-23T09:03:21.654Z,13.60
2023-05-23T09:05:50.368Z,13.55
2023-05-23T09:08:17.452Z,13.50
2023-05-23T09:10:44.300Z,13.30
2023-05-23T09:13:11.265Z,13.36
2023-05-23T09:15:38.882Z,13.56
2023-05-23T09:18:06.060Z,13.64
2023-05-23T09:20:33.455Z,13.80
2023-05-23T09:23:02.939Z,13.59
2023-05-23T09:25:31.201Z,13.71
2023-05-23T09:28:00.288Z,13.74
2023-05-23T09:30:27.187Z,14.10
2023-05-23T09:33:02.037Z,14.18
2023-05-23T09:35:31.195Z,14.21
2023-05-23T09:38:01.953Z,14.24
2023-05-23T09:40:33.258Z,14.27
2023-05-23T09:43:04.641Z,13.81
2023-05-23T09:45:32.700Z,14.09
2023-05-23T09:48:00.137Z,14.12
2023-05-23T09:50:33.809Z,14.58
2023-05-23T09:53:01.679Z,14.90
2023-05-23T09:55:28.798Z,15.21
2023-05-23T09:57:58.690Z,15.27
2023-05-23T10:00:26.368Z,14.97
2023-05-23T10:03:02.086Z,14.92
2023-05-23T10:05:44.485Z,14.40
2023-05-23T10:08:19.417Z,14.31
2023-05-23T10:11:11.917Z,14.79
2023-05-23T10:13:43.721Z,15.14
2023-05-23T10:16:23.746Z,14.95
2023-05-23T10:18:58.383Z,14.95
2023-05-23T10:21:33.735Z,14.99
2023-05-23T10:24:01.805Z,14.82
2023-05-23T10:26:28.982Z,14.99
2023-05-23T10:28:57.712Z,15.14
2023-05-23T10:31:25.417Z,15.69
2023-05-23T10:34:17.875Z,16.10
2023-05-23T10:36:58.058Z,15.53
2023-05-23T10:39:50.165Z,15.83
2023-05-23T10:42:30.764Z,17.08
2023-05-23T10:45:23.736Z,18.74
2023-05-23T10:47:53.016Z,17.45
2023-05-23T10:50:37.531Z,17.15
2023-05-23T10:53:09.776Z,17.68
2023-05-23T10:55:37.522Z,17.21
2023-05-23T10:58:21.849Z,17.02
2023-05-23T11:00:57.069Z,17.09
2023-05-23T11:03:46.122Z,18.51
2023-05-23T11:06:45.041Z,21.06
2023-05-23T11:09:21.086Z,20.84
2023-05-23T11:11:58.242Z,24.42
2023-05-23T11:14:38.323Z,23.46
2023-05-23T11:17:14.161Z,24.23
2023-05-23T11:19:57.134Z,24.63
2023-05-23T11:22:28.110Z,23.06
2023-05-23T11:24:56.185Z,21.42
2023-05-23T11:27:28.963Z,20.84
2023-05-23T11:30:09.867Z,19.61
2023-05-23T11:32:37.763Z,23.00
2023-05-23T11:35:07.181Z,25.00
2023-05-23T11:37:34.805Z,25.51
2023-05-23T11:40:27.483Z,25.78
2023-05-23T11:42:58.004Z,23.85
2023-05-23T11:45:26.073Z,24.64
2023-05-23T11:47:53.384Z,25.84
2023-05-23T11:50:24.594Z,26.90
2023-05-23T11:52:52.176Z,27.80
2023-05-23T11:55:23.577Z,27.50
2023-05-23T11:57:52.085Z,26.54
2023-05-23T12:00:19.890Z,25.81
2023-05-23T12:02:49.966Z,25.11
2023-05-23T12:05:17.175Z,24.32
2023-05-23T12:07:49.771Z,23.51
2023-05-23T12:10:18.127Z,22.99
2023-05-23T12:12:45.801Z,23.36
2023-05-23T12:15:13.813Z,22.69
2023-05-23T12:17:47.346Z,22.64
2023-05-23T12:20:14.487Z,22.26
2023-05-23T12:22:42.575Z,22.04
2023-05-23T12:25:11.434Z,21.54
2023-05-23T12:27:42.018Z,20.97
2023-05-23T12:30:16.494Z,19.99
2023-05-23T12:32:45.514Z,19.66
2023-05-23T12:35:14.184Z,20.42
2023-05-23T12:37:43.902Z,21.14
2023-05-23T12:40:19.911Z,20.67
2023-05-23T12:42:58.731Z,20.80
2023-05-23T12:45:33.188Z,20.25
2023-05-23T12:48:01.430Z,20.64
2023-05-23T12:50:28.568Z,20.66
2023-05-23T12:52:56.445Z,20.81
2023-05-23T12:55:23.359Z,20.57
2023-05-23T12:57:50.489Z,21.16
2023-05-23T13:00:18.505Z,20.67
2023-05-23T13:02:45.931Z,20.62
2023-05-23T13:05:13.052Z,20.19
2023-05-23T13:07:40.092Z,19.95
2023-05-23T13:10:07.578Z,19.12
2023-05-23T13:12:35.029Z,19.28
2023-05-23T13:15:01.960Z,19.23
2023-05-23T13:17:28.877Z,19.24
2023-05-23T13:19:55.787Z,19.29
2023-05-23T13:22:22.692Z,19.69
2023-05-23T13:24:49.561Z,19.71
2023-05-23T13:27:17.001Z,20.10
2023-05-23T13:29:45.421Z,20.40
2023-05-23T13:32:12.353Z,20.60
2023-05-23T13:34:39.806Z,20.37
2023-05-23T13:37:06.628Z,20.05
2023-05-23T13:39:33.592Z,19.48
2023-05-23T13:42:00.829Z,18.96
2023-05-23T13:44:29.341Z,19.15
2023-05-23T13:46:58.888Z,18.65
2023-05-23T13:49:25.907Z,18.14
2023-05-23T13:51:52.770Z,18.49
2023-05-23T13:54:19.828Z,18.68
2023-05-23T13:56:46.717Z,18.68
2023-05-23T13:59:14.130Z,18.25
2023-05-23T14:01:41.534Z,17.64
2023-05-23T14:04:08.554Z,17.57
2023-05-23T14:06:36.904Z,17.00
2023-05-23T14:09:04.113Z,16.86
2023-05-23T14:11:31.189Z,16.82
2023-05-23T14:13:58.123Z,17.06
2023-05-23T14:16:25.116Z,17.10
2023-05-23T14:18:52.578Z,17.24
2023-05-23T14:21:19.493Z,17.05
2023-05-23T14:23:46.465Z,17.03
2023-05-23T14:26:15.716Z,16.93
2023-05-23T14:28:42.710Z,17.23
2023-05-23T14:31:09.710Z,16.67
2023-05-23T14:33:36.534Z,17.26
2023-05-23T14:36:04.209Z,17.69
2023-05-23T14:38:31.051Z,18.57
2023-05-23T14:40:59.370Z,17.76
2023-05-23T14:43:26.353Z,17.37
2023-05-23T14:45:53.227Z,17.02
2023-05-23T14:48:20.198Z,16.63
2023-05-23T14:50:47.029Z,16.17
2023-05-23T14:53:13.928Z,15.80
2023-05-23T14:55:41.507Z,15.44
2023-05-23T14:58:08.750Z,15.77
2023-05-23T15:00:35.584Z,16.36
2023-05-23T15:03:02.549Z,16.60
2023-05-23T15:05:29.442Z,16.85
2023-05-23T15:07:56.714Z,16.95
2023-05-23T15:10:23.629Z,17.07
2023-05-23T15:12:50.733Z,17.07
2023-05-23T15:15:23.294Z,16.85
2023-05-23T15:17:51.411Z,16.34
2023-05-23T15:20:18.778Z,16.53
2023-05-23T15:22:45.954Z,16.55
2023-05-23T15:25:12.834Z,16.33
2023-05-23T15:27:39.611Z,16.30
2023-05-23T15:30:07.280Z,15.89
2023-05-23T15:32:34.320Z,15.47
2023-05-23T15:35:01.245Z,15.79
2023-05-23T15:37:30.006Z,16.08
2023-05-23T15:39:56.996Z,16.40
2023-05-23T15:42:23.920Z,16.78
2023-05-23T15:44:51.386Z,16.57
2023-05-23T15:47:19.079Z,16.11
2023-05-23T15:49:46.056Z,16.18
2023-05-23T15:52:13.280Z,15.91
2023-05-23T15:54:40.156Z,15.64
2023-05-23T15:57:07.140Z,15.34
2023-05-23T15:59:36.488Z,15.46
2023-05-23T16:02:07.049Z,15.32
2023-05-23T16:04:36.347Z,15.03
2023-05-23T16:07:03.988Z,14.79
2023-05-23T16:09:30.896Z,14.97
2023-05-23T16:11:58.679Z,14.90
2023-05-23T16:14:25.966Z,14.73
2023-05-23T16:16:52.883Z,14.66
2023-05-23T16:19:23.010Z,14.99
2023-05-23T16:21:50.821Z,14.73
2023-05-23T16:24:18.601Z,14.44
2023-05-23T16:26:45.586Z,14.55
2023-05-23T16:29:12.623Z,14.74
2023-05-23T16:31:39.678Z,15.02
2023-05-23T16:34:06.693Z,15.14
2023-05-23T16:36:33.695Z,15.39
2023-05-23T16:39:00.573Z,15.35
2023-05-23T16:41:28.569Z,15.50
2023-05-23T16:43:55.950Z,15.52
2023-05-23T16:46:23.128Z,15.20
2023-05-23T16:48:50.456Z,15.00
2023-05-23T16:51:17.537Z,14.38
2023-05-23T16:53:44.335Z,14.08
2023-05-23T16:56:11.255Z,14.23
2023-05-23T16:58:39.066Z,14.44
2023-05-23T17:01:07.226Z,14.61
2023-05-23T17:03:34.618Z,14.15
2023-05-23T17:06:01.668Z,13.40
2023-05-23T17:08:28.674Z,13.37
2023-05-23T17:10:55.556Z,13.47
2023-05-23T17:13:22.333Z,13.44
2023-05-23T17:15:51.588Z,13.58
2023-05-23T17:18:18.987Z,12.95
2023-05-23T17:20:46.070Z,12.60
2023-05-23T17:23:13.151Z,12.64
2023-05-23T17:25:40.517Z,12.86
2023-05-23T17:28:07.955Z,13.04
2023-05-23T17:30:35.146Z,12.66
2023-05-23T17:33:02.301Z,12.61
2023-05-23T17:35:29.312Z,12.42
2023-05-23T17:37:58.487Z,12.43
2023-05-23T17:40:25.839Z,12.22
2023-05-23T17:42:53.403Z,12.20
2023-05-23T17:45:20.230Z,12.18
2023-05-23T17:47:47.437Z,12.25
2023-05-23T17:50:14.478Z,12.32
2023-05-23T17:52:41.999Z,12.18
2023-05-23T17:55:09.582Z,12.25
2023-05-23T17:57:36.808Z,12.45
2023-05-23T18:00:04.294Z,12.42
2023-05-23T18:02:31.680Z,12.46
2023-05-23T18:04:59.401Z,11.98
2023-05-23T18:07:26.645Z,11.80
2023-05-23T18:09:53.580Z,11.71
2023-05-23T18:12:21.298Z,11.69
2023-05-23T18:14:48.471Z,11.84
2023-05-23T18:17:17.624Z,11.78
2023-05-23T18:19:45.921Z,11.72
2023-05-23T18:22:14.554Z,11.13
2023-05-23T18:24:41.955Z,11.30
2023-05-23T18:27:09.116Z,11.45
2023-05-23T18:29:36.562Z,11.41
2023-05-23T18:32:04.017Z,11.31
2023-05-23T18:34:30.989Z,11.30
2023-05-23T18:36:57.986Z,11.21
2023-05-23T18:39:25.150Z,11.24
2023-05-23T18:41:52.334Z,11.12
2023-05-23T18:44:20.855Z,11.18
2023-05-23T18:46:48.325Z,11.08
2023-05-23T18:49:15.386Z,11.13
2023-05-23T18:51:43.099Z,11.14
2023-05-23T18:54:10.222Z,11.13
2023-05-23T18:56:37.399Z,10.90
2023-05-23T18:59:04.542Z,10.93
2023-05-23T19:01:31.414Z,10.86
2023-05-23T19:03:58.496Z,11.00
2023-05-23T19:06:25.895Z,10.95
2023-05-23T19:08:52.901Z,10.97
2023-05-23T19:11:19.749Z,11.00
2023-05-23T19:13:46.797Z,10.98
2023-05-23T19:16:13.826Z,10.71
2023-05-23T19:18:40.645Z,10.83
2023-05-23T19:21:07.637Z,10.89
2023-05-23T19:23:34.700Z,10.77
2023-05-23T19:26:02.347Z,10.73
2023-05-23T19:28:29.188Z,10.77
2023-05-23T19:30:56.512Z,10.81
2023-05-23T19:33:23.501Z,10.85
2023-05-23T19:35:50.428Z,10.90
2023-05-23T19:38:17.483Z,10.73
2023-05-23T19:40:47.341Z,10.78
2023-05-23T19:43:14.217Z,10.64
2023-05-23T19:45:41.320Z,10.63
2023-05-23T19:48:08.351Z,10.55
2023-05-23T19:50:35.292Z,10.55
2023-05-23T19:53:02.315Z,10.47
2023-05-23T19:55:29.130Z,10.48
2023-05-23T19:57:56.112Z,10.41
2023-05-23T20:00:23.512Z,10.38
2023-05-23T20:02:50.831Z,10.40
2023-05-23T20:05:17.974Z,10.59
2023-05-23T20:07:44.887Z,10.52
2023-05-23T20:10:12.129Z,10.72
2023-05-23T20:12:39.170Z,10.48
2023-05-23T20:15:06.783Z,10.30
2023-05-23T20:17:33.729Z,10.25
2023-05-23T20:20:01.074Z,10.26
2023-05-23T20:22:28.435Z,10.24
2023-05-23T20:24:55.827Z,10.16
2023-05-23T20:27:22.670Z,10.23
2023-05-23T20:29:50.670Z,10.29
2023-05-23T20:32:17.785Z,10.45
2023-05-23T20:34:44.812Z,10.46
2023-05-23T20:37:13.987Z,10.30
2023-05-23T20:39:44.518Z,10.07
2023-05-23T20:42:11.764Z,10.10
2023-05-23T20:44:38.920Z,10.04
2023-05-23T20:47:07.011Z,10.05
2023-05-23T20:49:35.008Z,9.90
2023-05-23T20:52:02.514Z,9.81
2023-05-23T20:54:29.605Z,9.74
2023-05-23T20:56:56.780Z,9.94
2023-05-23T20:59:26.487Z,10.07
2023-05-23T21:01:53.832Z,9.80
2023-05-23T21:04:20.816Z,9.65
2023-05-23T21:06:47.998Z,9.42
2023-05-23T21:09:16.672Z,9.41
2023-05-23T21:11:44.810Z,9.11
2023-05-23T21:14:11.792Z,9.08
2023-05-23T21:16:38.657Z,8.91
2023-05-23T21:19:05.600Z,8.75
2023-05-23T21:21:32.496Z,8.68
2023-05-23T21:23:59.307Z,8.55
2023-05-23T21:26:26.168Z,8.54
2023-05-23T21:28:53.079Z,8.71
2023-05-23T21:31:29.803Z,8.92
2023-05-23T21:34:18.453Z,8.95
2023-05-23T21:36:49.075Z,9.01
2023-05-23T21:39:15.987Z,9.21
2023-05-23T21:41:42.870Z,9.21
2023-05-23T21:44:09.987Z,9.35
2023-05-23T21:46:37.555Z,9.34
2023-05-23T21:49:04.476Z,9.37
2023-05-23T21:51:31.388Z,9.40
2023-05-23T21:53:58.510Z,9.36
2023-05-23T21:56:26.590Z,9.30
2023-05-23T21:58:53.488Z,9.21
2023-05-23T22:01:20.511Z,9.27
2023-05-23T22:03:47.495Z,9.24
2023-05-23T22:06:14.685Z,9.13
2023-05-23T22:08:42.367Z,9.11
2023-05-23T22:11:10.555Z,9.15
2023-05-23T22:13:37.452Z,9.04
2023-05-23T22:16:12.996Z,9.03
2023-05-23T22:18:51.403Z,9.02
2023-05-23T22:21:21.413Z,9.05
2023-05-23T22:23:48.360Z,8.98
2023-05-23T22:26:15.426Z,9.09
2023-05-23T22:28:42.690Z,9.07
2023-05-23T22:31:12.053Z,9.09
2023-05-23T22:33:41.285Z,9.12
2023-05-23T22:36:09.916Z,9.20
2023-05-23T22:38:38.046Z,9.20
2023-05-23T22:41:05.505Z,9.08
2023-05-23T22:43:32.565Z,9.12
2023-05-23T22:45:59.544Z,8.96
2023-05-23T22:48:26.712Z,9.11
2023-05-23T22:50:57.392Z,9.15
2023-05-23T22:53:24.416Z,9.31
2023-05-23T22:55:51.351Z,9.38
2023-05-23T22:58:20.817Z,9.43
2023-05-23T23:00:47.990Z,9.46
2023-05-23T23:03:15.641Z,9.55
2023-05-23T23:05:42.658Z,9.64
2023-05-23T23:08:09.583Z,9.34
2023-05-23T23:10:36.443Z,9.61
2023-05-23T23:13:03.446Z,9.59
2023-05-23T23:15:30.501Z,9.54
2023-05-23T23:17:57.770Z,9.51
2023-05-23T23:20:25.123Z,9.46
2023-05-23T23:22:52.346Z,9.39
2023-05-23T23:25:19.447Z,9.39
2023-05-23T23:27:46.328Z,9.52
2023-05-23T23:30:13.413Z,9.39
2023-05-23T23:32:40.333Z,9.59
2023-05-23T23:35:07.666Z,9.58
2023-05-23T23:37:34.465Z,9.65
2023-05-23T23:40:01.456Z,9.84
2023-05-23T23:42:28.525Z,9.83
2023-05-23T23:44:55.442Z,9.76
2023-05-23T23:47:22.360Z,9.69
2023-05-23T23:49:49.400Z,9.58
2023-05-23T23:52:16.404Z,9.56
2023-05-23T23:54:43.426Z,9.50
2023-05-23T23:57:14.264Z,9.47
2023-05-23T23:59:41.877Z,9.41
